Time;durP1;ratioP1;P1;durP2;ratioP2;P2;SDS_P1;SDS_P2;PMS_P1;PMS_P2;Temp;Humidity;BMP_temperature;BMP_pressure;BME280_temperature;BME280_humidity;BME280_pressure;Samples;Min_cycle;Max_cycle;Signal;HPM_P1;HPM_P2
2022/11/17 00:00:16;;;;;;;11.82;5.88;;;9.10;99.90;;;;;;7407322;19;19950;-64
2022/11/17 00:02:49;;;;;;;10.00;5.50;;;9.10;99.90;;;;;;7402738;19;19943;-64
2022/11/17 00:05:18;;;;;;;9.55;6.18;;;9.10;99.90;;;;;;7405077;19;20322;-64
2022/11/17 00:07:48;;;;;;;9.38;5.50;;;9.10;99.90;;;;;;7398224;19;20260;-64
2022/11/17 00:10:19;;;;;;;9.60;6.45;;;9.00;99.90;;;;;;7401784;19;19941;-65
2022/11/17 00:15:31;;;;;;;8.75;5.60;;;9.00;99.90;;;;;;7403162;19;19921;-64
2022/11/17 00:23:49;;;;;;;12.15;5.70;;;9.00;99.90;;;;;;7406054;19;19922;-64
2022/11/17 00:26:19;;;;;;;9.50;4.93;;;9.00;99.90;;;;;;7405019;19;19943;-64
2022/11/17 00:28:48;;;;;;;5.90;4.13;;;9.00;99.90;;;;;;7404571;19;19926;-64
2022/11/17 00:34:08;;;;;;;9.77;5.50;;;8.90;99.90;;;;;;7403154;19;19919;-64
2022/11/17 00:36:40;;;;;;;8.90;5.53;;;8.90;99.90;;;;;;7406446;19;19964;-64
2022/11/17 00:39:11;;;;;;;8.65;5.40;;;8.80;99.90;;;;;;7406208;19;20344;-63
2022/11/17 00:41:40;;;;;;;10.57;5.35;;;8.90;99.90;;;;;;7403883;19;19923;-64
2022/11/17 00:44:09;;;;;;;9.13;5.97;;;8.90;99.90;;;;;;7405610;19;19939;-64
2022/11/17 00:46:42;;;;;;;9.95;5.63;;;8.90;99.90;;;;;;7405953;19;20341;-64
2022/11/17 00:49:13;;;;;;;8.73;4.45;;;8.80;99.90;;;;;;7402764;19;19915;-64
2022/11/17 00:51:43;;;;;;;8.35;5.38;;;8.70;99.90;;;;;;7402717;19;19986;-64
2022/11/17 00:54:14;;;;;;;11.18;5.28;;;8.80;99.90;;;;;;7393772;19;19925;-64
2022/11/17 00:56:43;;;;;;;10.73;6.40;;;8.70;99.90;;;;;;7405467;19;19971;-63
2022/11/17 00:59:12;;;;;;;9.80;5.93;;;8.70;99.90;;;;;;7402932;19;19918;-64
2022/11/17 01:01:41;;;;;;;8.38;5.25;;;8.70;99.90;;;;;;7405511;19;19915;-64
2022/11/17 01:04:13;;;;;;;9.88;5.82;;;8.80;99.90;;;;;;7401767;19;19943;-64
2022/11/17 01:06:44;;;;;;;7.82;4.70;;;8.80;99.90;;;;;;7401596;19;19918;-63
2022/11/17 01:09:16;;;;;;;9.88;5.43;;;8.80;99.90;;;;;;7396326;19;19918;-64
2022/11/17 01:11:45;;;;;;;8.48;4.78;;;8.70;99.90;;;;;;7399158;19;20007;-64
2022/11/17 01:14:16;;;;;;;9.02;5.15;;;8.80;99.90;;;;;;7405295;19;20349;-64
2022/11/17 01:16:46;;;;;;;8.02;4.30;;;8.70;99.90;;;;;;7402343;19;19911;-64
2022/11/17 01:19:20;;;;;;;9.10;4.90;;;8.70;99.90;;;;;;7401545;19;19922;-63
2022/11/17 01:21:49;;;;;;;8.07;5.10;;;8.60;99.90;;;;;;7401437;19;19933;-63
2022/11/17 01:24:18;;;;;;;9.13;4.47;;;8.60;99.90;;;;;;7404118;19;19930;-63
2022/11/17 01:26:49;;;;;;;9.80;4.85;;;8.60;99.90;;;;;;7400332;19;19918;-63
2022/11/17 01:29:19;;;;;;;8.40;4.72;;;8.60;99.90;;;;;;7410927;19;19994;-64
2022/11/17 01:31:52;;;;;;;9.50;5.32;;;8.60;99.90;;;;;;7405563;19;19915;-64
2022/11/17 01:34:23;;;;;;;8.70;5.47;;;8.60;99.90;;;;;;7409472;19;19925;-64
2022/11/17 01:39:34;;;;;;;7.35;4.13;;;8.60;99.90;;;;;;7407492;19;19915;-63
2022/11/17 01:42:06;;;;;;;8.90;4.57;;;8.60;99.90;;;;;;7408549;19;20018;-64
2022/11/17 01:44:57;;;;;;;7.43;3.63;;;8.60;99.90;;;;;;7408927;19;19922;-64
2022/11/17 01:47:32;;;;;;;8.32;4.43;;;8.60;99.90;;;;;;7411082;19;19929;-63
2022/11/17 01:50:08;;;;;;;9.75;4.03;;;8.60;99.90;;;;;;7408172;19;19923;-64
2022/11/17 01:52:39;;;;;;;8.68;4.22;;;8.60;99.90;;;;;;7409802;19;20344;-63
2022/11/17 01:55:11;;;;;;;7.82;4.30;;;8.50;99.90;;;;;;7409247;19;19926;-64
2022/11/17 01:57:46;;;;;;;7.13;3.75;;;8.60;99.90;;;;;;7407083;19;19929;-64
2022/11/17 02:00:16;;;;;;;7.30;4.00;;;8.60;99.90;;;;;;7408151;19;20348;-64
2022/11/17 02:02:46;;;;;;;7.72;4.25;;;8.60;99.90;;;;;;7406860;19;19939;-63
2022/11/17 02:05:36;;;;;;;7.82;4.28;;;8.70;99.90;;;;;;7408350;19;20352;-64
2022/11/17 02:08:08;;;;;;;9.32;4.38;;;8.60;99.90;;;;;;7409443;19;19930;-63
2022/11/17 02:10:37;;;;;;;7.07;3.60;;;8.60;99.90;;;;;;7404544;19;19915;-64
2022/11/17 02:13:08;;;;;;;8.70;4.07;;;8.50;99.90;;;;;;7406753;19;19986;-64
2022/11/17 02:15:37;;;;;;;9.57;4.00;;;8.60;99.90;;;;;;7408269;19;20258;-64
2022/11/17 02:18:08;;;;;;;7.55;4.40;;;8.50;99.90;;;;;;7406621;19;19946;-63
2022/11/17 02:21:03;;;;;;;7.13;4.35;;;8.60;99.90;;;;;;7407820;19;19926;-63
2022/11/17 02:24:08;;;;;;;8.77;3.80;;;8.60;99.90;;;;;;7403025;19;19923;-64
2022/11/17 02:27:19;;;;;;;8.93;3.85;;;8.70;99.90;;;;;;7407585;19;19932;-64
2022/11/17 02:29:54;;;;;;;7.40;3.67;;;8.60;99.90;;;;;;7401377;19;19983;-64
2022/11/17 02:32:31;;;;;;;6.75;3.72;;;8.70;99.90;;;;;;7407268;19;19925;-64
2022/11/17 02:35:11;;;;;;;7.45;4.40;;;8.70;99.90;;;;;;7405753;19;19942;-64
2022/11/17 02:37:48;;;;;;;8.65;4.03;;;8.70;99.90;;;;;;7401260;19;19923;-64
2022/11/17 02:40:23;;;;;;;7.05;3.47;;;8.60;99.90;;;;;;7405284;19;19982;-64
2022/11/17 02:45:46;;;;;;;8.13;3.33;;;8.70;99.90;;;;;;7406555;19;19923;-63
2022/11/17 02:48:20;;;;;;;7.78;4.05;;;8.70;99.90;;;;;;7405666;19;19946;-64
2022/11/17 02:50:50;;;;;;;7.30;4.13;;;8.60;99.90;;;;;;7406624;19;19922;-64
2022/11/17 02:53:21;;;;;;;8.35;5.20;;;8.60;99.90;;;;;;7407125;19;19922;-64
2022/11/17 02:55:52;;;;;;;7.43;4.07;;;8.60;99.90;;;;;;7409294;19;19922;-64
2022/11/17 02:58:23;;;;;;;7.13;3.75;;;8.60;99.90;;;;;;7406259;19;19922;-64
2022/11/17 03:01:09;;;;;;;7.32;4.20;;;8.60;99.90;;;;;;7405633;19;20314;-64
2022/11/17 03:04:05;;;;;;;8.23;4.07;;;8.50;99.90;;;;;;7404776;19;20261;-64
2022/11/17 03:06:46;;;;;;;6.03;3.55;;;8.60;99.90;;;;;;7404856;19;19919;-64
2022/11/17 03:09:27;;;;;;;7.47;4.97;;;8.60;99.90;;;;;;7398346;19;19914;-64
2022/11/17 03:12:01;;;;;;;8.02;4.15;;;8.50;99.90;;;;;;7404815;19;19921;-64
2022/11/17 03:14:42;;;;;;;6.57;2.97;;;8.50;99.90;;;;;;7406348;19;20345;-64
2022/11/17 03:17:18;;;;;;;7.10;3.47;;;8.50;99.90;;;;;;7408543;19;19918;-64
2022/11/17 03:19:57;;;;;;;6.03;3.92;;;8.50;99.90;;;;;;7406618;19;20356;-64
2022/11/17 03:22:30;;;;;;;7.72;4.18;;;8.40;99.90;;;;;;7400380;19;20550;-64
2022/11/17 03:25:05;;;;;;;7.05;4.65;;;8.40;99.90;;;;;;7407112;19;19985;-64
2022/11/17 03:27:39;;;;;;;7.82;4.57;;;8.50;99.90;;;;;;7405489;19;19922;-64
2022/11/17 03:30:12;;;;;;;7.10;3.83;;;8.50;99.90;;;;;;7406901;19;19918;-64
2022/11/17 03:32:44;;;;;;;7.07;4.43;;;8.40;99.90;;;;;;7406754;19;19918;-64
2022/11/17 03:35:19;;;;;;;8.52;4.80;;;8.40;99.90;;;;;;7404692;19;19983;-64
2022/11/17 03:37:53;;;;;;;8.55;4.30;;;8.40;99.90;;;;;;7407270;19;19919;-64
2022/11/17 03:40:26;;;;;;;6.53;3.88;;;8.30;99.90;;;;;;7404727;19;19930;-64
2022/11/17 03:43:00;;;;;;;7.10;4.72;;;8.40;99.90;;;;;;7409327;19;19914;-64
2022/11/17 03:45:35;;;;;;;7.25;4.40;;;8.40;99.90;;;;;;7405635;19;19947;-64
2022/11/17 03:48:11;;;;;;;8.73;4.18;;;8.30;99.90;;;;;;7404428;19;19911;-64
2022/11/17 03:50:45;;;;;;;8.07;4.97;;;8.30;99.90;;;;;;7403462;19;19943;-64
2022/11/17 03:53:15;;;;;;;7.70;3.88;;;8.30;99.90;;;;;;7407570;19;19918;-64
2022/11/17 03:55:51;;;;;;;7.05;4.45;;;8.30;99.90;;;;;;7400921;19;19927;-64
2022/11/17 03:58:23;;;;;;;9.77;4.90;;;8.30;99.90;;;;;;7407031;19;19928;-64
2022/11/17 04:00:57;;;;;;;7.72;4.90;;;8.30;99.90;;;;;;7404232;19;19919;-64
2022/11/17 04:03:32;;;;;;;7.13;3.90;;;8.10;99.90;;;;;;7405927;19;19921;-64
2022/11/17 04:06:01;;;;;;;8.50;5.10;;;8.10;99.90;;;;;;7404222;19;19986;-64
2022/11/17 04:08:31;;;;;;;7.65;4.93;;;8.10;99.90;;;;;;7405792;19;19923;-64
2022/11/17 04:16:25;;;;;;;9.15;4.95;;;8.10;99.90;;;;;;7405465;19;20261;-64
2022/11/17 04:18:54;;;;;;;10.32;4.43;;;8.10;99.90;;;;;;7405187;19;19989;-64
2022/11/17 04:21:24;;;;;;;8.30;4.88;;;8.00;99.90;;;;;;7403501;19;19926;-64
2022/11/17 04:23:53;;;;;;;9.52;4.95;;;8.00;99.90;;;;;;7402818;19;19926;-64
2022/11/17 04:29:04;;;;;;;8.43;5.03;;;8.00;99.90;;;;;;7403817;19;19914;-64
2022/11/17 04:31:35;;;;;;;9.07;4.90;;;8.00;99.90;;;;;;7398177;19;19926;-64
2022/11/17 04:34:06;;;;;;;8.60;5.25;;;7.90;99.90;;;;;;7407316;19;19926;-64
2022/11/17 04:36:39;;;;;;;7.75;4.57;;;7.90;99.90;;;;;;7402585;19;19947;-64
2022/11/17 04:39:09;;;;;;;8.73;5.43;;;7.90;99.90;;;;;;7403031;19;19915;-64
2022/11/17 04:44:19;;;;;;;8.73;4.55;;;7.80;99.90;;;;;;7402472;19;19930;-63
2022/11/17 04:46:52;;;;;;;7.80;5.38;;;7.80;99.90;;;;;;7403674;19;19918;-63
2022/11/17 04:49:21;;;;;;;8.15;4.53;;;7.80;99.90;;;;;;7405311;19;19935;-63
2022/11/17 04:51:51;;;;;;;9.45;5.43;;;7.80;99.90;;;;;;7401632;19;19933;-64
2022/11/17 04:54:23;;;;;;;9.48;5.15;;;7.80;99.90;;;;;;7403555;19;19914;-63
2022/11/17 04:56:53;;;;;;;9.82;5.80;;;7.70;99.90;;;;;;7402788;19;20576;-64
2022/11/17 04:59:22;;;;;;;10.45;5.07;;;7.70;99.90;;;;;;7401902;19;19933;-63
2022/11/17 05:01:53;;;;;;;8.15;4.85;;;7.70;99.90;;;;;;7402997;19;19918;-63
2022/11/17 05:07:05;;;;;;;9.27;5.03;;;7.80;99.90;;;;;;7409019;19;19933;-63
2022/11/17 05:09:34;;;;;;;9.25;5.38;;;7.70;99.90;;;;;;7410200;19;20066;-63
2022/11/17 05:14:46;;;;;;;8.63;3.67;;;7.60;99.90;;;;;;7408359;19;20269;-63
2022/11/17 05:17:15;;;;;;;5.60;3.42;;;7.60;99.90;;;;;;7398238;19;19919;-64
2022/11/17 05:19:45;;;;;;;8.00;4.03;;;7.60;99.90;;;;;;7411776;19;19934;-63
2022/11/17 05:25:01;;;;;;;6.32;3.22;;;7.60;99.90;;;;;;7406302;19;19931;-63
2022/11/17 05:27:32;;;;;;;8.20;3.97;;;7.60;99.90;;;;;;7406651;19;20273;-63
2022/11/17 05:30:01;;;;;;;5.47;3.13;;;7.60;99.90;;;;;;7408011;19;19918;-64
2022/11/17 05:32:32;;;;;;;5.53;3.13;;;7.60;99.90;;;;;;7404654;19;19919;-63
2022/11/17 05:35:01;;;;;;;7.43;3.85;;;7.60;99.90;;;;;;7405869;19;19934;-63
2022/11/17 05:37:30;;;;;;;6.35;3.45;;;7.60;99.90;;;;;;7408793;19;20000;-64
2022/11/17 05:39:59;;;;;;;6.65;3.80;;;7.50;99.90;;;;;;7412164;19;20328;-63
2022/11/17 05:42:28;;;;;;;8.13;2.45;;;7.50;99.90;;;;;;7406783;19;19914;-64
2022/11/17 05:44:57;;;;;;;6.88;2.92;;;7.60;99.90;;;;;;7406782;19;19915;-63
2022/11/17 05:47:26;;;;;;;5.45;3.05;;;7.50;99.90;;;;;;7407761;19;19962;-64
2022/11/17 05:49:58;;;;;;;6.05;3.15;;;7.50;99.90;;;;;;7409881;19;19964;-63
2022/11/17 05:52:27;;;;;;;4.35;2.38;;;7.40;99.90;;;;;;7405360;19;19918;-63
2022/11/17 05:54:56;;;;;;;7.30;3.70;;;7.40;99.90;;;;;;7403097;19;19925;-63
2022/11/17 05:57:32;;;;;;;6.13;3.15;;;7.40;99.90;;;;;;7412039;19;19936;-63
2022/11/17 06:00:04;;;;;;;6.25;3.15;;;7.40;99.90;;;;;;7408157;19;20236;-63
2022/11/17 06:02:39;;;;;;;5.32;2.85;;;7.40;99.90;;;;;;7409204;19;19946;-63
2022/11/17 06:05:11;;;;;;;6.40;3.33;;;7.40;99.90;;;;;;7408794;19;19918;-63
2022/11/17 06:07:42;;;;;;;6.00;2.63;;;7.40;99.90;;;;;;7406175;19;20297;-64
2022/11/17 06:10:12;;;;;;;5.88;3.00;;;7.50;99.90;;;;;;7406862;19;20390;-63
2022/11/17 06:12:41;;;;;;;;;;;7.40;99.90;;;;;;7408352;19;19922;-63
2022/11/17 06:15:11;;;;;;;6.25;2.60;;;7.40;99.90;;;;;;7403308;19;19914;-64
2022/11/17 06:17:42;;;;;;;;;;;7.40;99.90;;;;;;7410215;19;19911;-63
2022/11/17 06:20:18;;;;;;;5.93;3.08;;;7.30;99.90;;;;;;7406946;19;19936;-63
2022/11/17 06:22:48;;;;;;;;;;;7.40;99.90;;;;;;7411420;19;19947;-63
2022/11/17 06:25:18;;;;;;;7.13;2.35;;;7.30;99.90;;;;;;7409213;19;20364;-64
2022/11/17 06:27:49;;;;;;;7.82;4.07;;;7.30;99.90;;;;;;7402852;19;19927;-64
2022/11/17 06:30:19;;;;;;;5.82;3.33;;;7.40;99.90;;;;;;7406548;19;19910;-63
2022/11/17 06:32:49;;;;;;;7.72;3.63;;;7.30;99.90;;;;;;7403818;19;19978;-64
2022/11/17 06:35:21;;;;;;;5.35;2.58;;;7.30;99.90;;;;;;7396425;19;19919;-63
2022/11/17 06:37:50;;;;;;;6.15;2.88;;;7.20;99.90;;;;;;7391213;19;19922;-64
2022/11/17 06:40:19;;;;;;;9.30;4.40;;;7.30;99.90;;;;;;7394380;19;19943;-64
2022/11/17 06:45:30;;;;;;;7.85;4.30;;;7.20;99.90;;;;;;7404341;19;19978;-64
2022/11/17 06:47:59;;;;;;;6.65;2.78;;;7.20;99.90;;;;;;7404236;19;19918;-63
2022/11/17 06:50:30;;;;;;;5.97;2.83;;;7.30;99.90;;;;;;7407350;19;19923;-63
2022/11/17 06:53:00;;;;;;;6.22;3.15;;;7.30;99.90;;;;;;7402260;19;19926;-63
2022/11/17 06:55:30;;;;;;;6.32;2.35;;;7.30;99.90;;;;;;7407789;19;20365;-63
2022/11/17 06:58:03;;;;;;;5.32;2.75;;;7.30;99.90;;;;;;7407052;19;19919;-76
2022/11/17 07:00:32;;;;;;;7.53;3.20;;;7.30;99.90;;;;;;7404089;19;19929;-72
2022/11/17 07:03:02;;;;;;;5.30;2.42;;;7.20;99.90;;;;;;7409894;19;19922;-72
2022/11/17 07:05:35;;;;;;;6.05;2.83;;;7.20;99.90;;;;;;7408977;19;20054;-72
2022/11/17 07:08:07;;;;;;;7.05;3.45;;;7.20;99.90;;;;;;7405630;19;19969;-75
2022/11/17 07:10:37;;;;;;;7.40;3.53;;;7.20;99.90;;;;;;7405089;19;19915;-74
2022/11/17 07:13:06;;;;;;;6.78;2.95;;;7.20;99.90;;;;;;7408332;19;19926;-79
2022/11/17 07:15:35;;;;;;;5.40;2.45;;;7.20;99.90;;;;;;7405494;19;20255;-80
2022/11/17 07:18:04;;;;;;;5.32;2.38;;;7.20;99.90;;;;;;7405459;19;19925;-78
2022/11/17 07:20:36;;;;;;;5.35;2.40;;;7.20;99.90;;;;;;7405096;19;20300;-79
2022/11/17 07:23:05;;;;;;;4.72;2.58;;;7.20;99.90;;;;;;7403990;19;19923;-63
2022/11/17 07:25:35;;;;;;;5.40;2.08;;;7.20;99.90;;;;;;7403179;19;19926;-63
2022/11/17 07:28:04;;;;;;;6.68;2.60;;;7.20;99.90;;;;;;7409620;19;19918;-63
2022/11/17 07:30:35;;;;;;;5.78;2.20;;;7.30;99.90;;;;;;7404910;19;19923;-62
2022/11/17 07:33:05;;;;;;;6.60;2.33;;;7.30;99.90;;;;;;7405840;19;19922;-63
2022/11/17 07:35:38;;;;;;;5.18;2.53;;;7.20;99.90;;;;;;7406171;19;19923;-63
2022/11/17 07:38:07;;;;;;;4.22;1.83;;;7.30;99.90;;;;;;7407742;19;20450;-63
2022/11/17 07:40:36;;;;;;;5.55;2.08;;;7.20;99.90;;;;;;7404238;19;19910;-63
2022/11/17 07:43:05;;;;;;;4.15;1.98;;;7.30;99.90;;;;;;7403896;19;19926;-64
2022/11/17 07:45:34;;;;;;;3.55;1.58;;;7.20;99.90;;;;;;7408329;19;19919;-64
2022/11/17 07:48:05;;;;;;;4.95;2.03;;;7.20;99.90;;;;;;7407264;19;19922;-63
2022/11/17 07:50:38;;;;;;;3.17;1.40;;;7.20;99.90;;;;;;7407177;19;19970;-63
2022/11/17 07:53:07;;;;;;;4.05;1.75;;;7.20;99.90;;;;;;7403083;19;19919;-63
2022/11/17 07:55:36;;;;;;;4.78;2.13;;;7.20;99.90;;;;;;7403816;19;19921;-63
2022/11/17 07:58:05;;;;;;;4.57;1.52;;;7.20;99.90;;;;;;7404684;19;19919;-63
2022/11/17 08:00:35;;;;;;;5.40;1.58;;;7.30;99.90;;;;;;7403003;19;19939;-64
2022/11/17 08:03:05;;;;;;;4.10;1.63;;;7.30;99.90;;;;;;7405505;19;19947;-63
2022/11/17 08:05:38;;;;;;;3.75;1.52;;;7.30;99.90;;;;;;7403552;19;19936;-64
2022/11/17 08:08:08;;;;;;;4.30;2.20;;;7.30;99.90;;;;;;7403230;19;20361;-63
2022/11/17 08:10:37;;;;;;;5.78;1.90;;;7.20;99.90;;;;;;7403743;19;20412;-63
2022/11/17 08:13:06;;;;;;;3.90;1.65;;;7.20;99.90;;;;;;7404178;19;20237;-64
2022/11/17 08:15:36;;;;;;;5.60;1.95;;;7.20;99.90;;;;;;7403335;19;20282;-63
2022/11/17 08:18:06;;;;;;;4.07;1.48;;;7.20;99.90;;;;;;7401779;19;19946;-64
2022/11/17 08:20:37;;;;;;;4.88;1.73;;;7.20;99.90;;;;;;7404046;19;19915;-63
2022/11/17 08:23:07;;;;;;;3.63;1.55;;;7.20;99.90;;;;;;7406173;19;19929;-64
2022/11/17 08:25:36;;;;;;;2.75;1.00;;;7.20;99.90;;;;;;7402860;19;19918;-64
2022/11/17 08:28:06;;;;;;;3.17;1.15;;;7.30;99.90;;;;;;7404785;19;19982;-64
2022/11/17 08:30:35;;;;;;;3.53;1.48;;;7.30;99.90;;;;;;7404412;19;20328;-64
2022/11/17 08:33:04;;;;;;;3.65;1.40;;;7.40;99.90;;;;;;7402393;19;19915;-63
2022/11/17 08:35:33;;;;;;;5.03;1.65;;;7.40;99.90;;;;;;7403234;19;19911;-63
2022/11/17 08:38:05;;;;;;;6.53;2.42;;;7.40;99.90;;;;;;7403395;19;19926;-64
2022/11/17 08:40:35;;;;;;;3.47;1.52;;;7.40;99.90;;;;;;7402916;19;19938;-64
2022/11/17 08:43:04;;;;;;;4.88;2.15;;;7.30;99.90;;;;;;7405348;19;20341;-63
2022/11/17 08:45:33;;;;;;;4.20;1.77;;;7.20;99.90;;;;;;7405366;19;19982;-63
2022/11/17 08:48:02;;;;;;;4.18;1.67;;;7.20;99.90;;;;;;7402410;19;19922;-64
2022/11/17 08:50:31;;;;;;;6.28;2.40;;;7.20;99.90;;;;;;7402240;19;19980;-63
2022/11/17 08:53:00;;;;;;;4.45;2.10;;;7.30;99.90;;;;;;7402249;19;19946;-63
2022/11/17 08:55:32;;;;;;;4.70;1.90;;;7.30;99.90;;;;;;7405220;19;20022;-64
2022/11/17 08:58:01;;;;;;;5.20;1.65;;;7.30;99.90;;;;;;7402020;19;19922;-64
2022/11/17 09:00:30;;;;;;;5.03;1.88;;;7.30;99.90;;;;;;7399979;19;19914;-64
2022/11/17 09:02:59;;;;;;;3.80;1.52;;;7.30;99.90;;;;;;7404446;19;19919;-64
2022/11/17 09:05:28;;;;;;;4.80;1.98;;;7.40;99.90;;;;;;7401652;19;20481;-63
2022/11/17 09:07:57;;;;;;;4.18;2.22;;;7.40;99.90;;;;;;7401786;19;20272;-64
2022/11/17 09:10:26;;;;;;;4.78;1.88;;;7.30;99.90;;;;;;7402701;19;19925;-64
2022/11/17 09:12:59;;;;;;;6.45;2.17;;;7.40;99.90;;;;;;7403256;19;19922;-63
2022/11/17 09:15:29;;;;;;;4.05;2.35;;;7.30;99.90;;;;;;7400760;19;19914;-63
2022/11/17 09:17:58;;;;;;;5.28;2.28;;;7.30;99.90;;;;;;7399416;19;19918;-63
2022/11/17 09:20:30;;;;;;;5.40;2.30;;;7.30;99.90;;;;;;7400745;19;19926;-64
2022/11/17 09:23:02;;;;;;;4.45;2.10;;;7.40;99.90;;;;;;7402240;19;20336;-63
2022/11/17 09:25:32;;;;;;;5.10;2.45;;;7.50;99.90;;;;;;7399941;19;19944;-63
2022/11/17 09:28:03;;;;;;;6.20;2.40;;;7.50;99.90;;;;;;7400902;19;19915;-63
2022/11/17 09:30:32;;;;;;;4.57;2.03;;;7.40;99.90;;;;;;7399945;19;19931;-64
2022/11/17 09:33:01;;;;;;;5.22;2.42;;;7.40;99.90;;;;;;7401969;19;19926;-64
2022/11/17 09:35:30;;;;;;;6.32;2.50;;;7.40;99.90;;;;;;7400845;19;19917;-63
2022/11/17 09:38:01;;;;;;;4.50;2.13;;;7.40;99.90;;;;;;7403067;19;19922;-64
2022/11/17 09:40:31;;;;;;;5.10;2.50;;;7.30;99.90;;;;;;7399686;19;19919;-64
2022/11/17 09:43:03;;;;;;;6.03;2.20;;;7.40;99.90;;;;;;7401290;19;19922;-64
2022/11/17 09:45:36;;;;;;;5.90;2.20;;;7.40;99.90;;;;;;7402305;19;19911;-63
2022/11/17 09:48:11;;;;;;;7.22;2.20;;;7.40;99.90;;;;;;7404577;19;20742;-63
2022/11/17 09:50:43;;;;;;;4.57;2.13;;;7.40;99.90;;;;;;7405512;19;19925;-64
2022/11/17 09:53:17;;;;;;;5.60;2.20;;;7.40;99.90;;;;;;7406722;19;19974;-63
2022/11/17 09:55:48;;;;;;;7.00;3.13;;;7.30;99.90;;;;;;7409571;19;19944;-63
2022/11/17 09:58:28;;;;;;;5.65;2.63;;;7.20;99.90;;;;;;7407461;19;19915;-64
2022/11/17 10:00:57;;;;;;;4.97;2.20;;;7.30;99.90;;;;;;7404911;19;19926;-63
2022/11/17 10:03:29;;;;;;;5.18;2.63;;;7.20;99.90;;;;;;7407750;19;20337;-64
2022/11/17 10:06:01;;;;;;;5.70;2.75;;;7.30;99.90;;;;;;7407889;19;19934;-64
2022/11/17 10:08:39;;;;;;;4.78;2.38;;;7.20;99.90;;;;;;7411475;19;20255;-63
2022/11/17 10:13:58;;;;;;;6.20;2.38;;;7.30;99.90;;;;;;7407198;19;19933;-63
2022/11/17 10:16:27;;;;;;;6.05;2.35;;;7.30;99.90;;;;;;7406744;19;19922;-64
2022/11/17 10:18:56;;;;;;;5.25;1.90;;;7.30;99.90;;;;;;7411136;19;19931;-63
2022/11/17 10:21:25;;;;;;;5.85;3.03;;;7.30;99.90;;;;;;7407032;19;20345;-63
2022/11/17 10:23:58;;;;;;;4.82;2.08;;;7.20;99.90;;;;;;7406577;19;19942;-63
2022/11/17 10:26:28;;;;;;;5.97;2.33;;;7.30;99.90;;;;;;7406141;19;19935;-63
2022/11/17 10:29:12;;;;;;;5.30;2.00;;;7.30;99.90;;;;;;7405994;19;19931;-63
2022/11/17 10:31:44;;;;;;;6.35;2.65;;;7.30;99.90;;;;;;7404546;19;19933;-63
2022/11/17 10:34:14;;;;;;;6.22;2.50;;;7.30;99.90;;;;;;7408272;19;19931;-63
2022/11/17 10:36:47;;;;;;;;;;;7.20;99.90;;;;;;7408621;19;19922;-63
2022/11/17 10:39:36;;;;;;;4.20;1.92;;;7.30;99.90;;;;;;7406275;19;19915;-63
2022/11/17 10:42:17;;;;;;;;;;;7.20;99.90;;;;;;7409097;19;20292;-63
2022/11/17 10:44:52;;;;;;;5.57;2.75;;;7.20;99.90;;;;;;7406288;19;19919;-63
2022/11/17 10:47:30;;;;;;;6.40;3.17;;;7.10;99.90;;;;;;7407181;19;19923;-64
2022/11/17 10:50:23;;;;;;;6.32;3.20;;;7.10;99.90;;;;;;7405931;19;19927;-63
2022/11/17 10:52:54;;;;;;;6.82;3.67;;;7.10;99.90;;;;;;7407022;19;19918;-63
2022/11/17 10:55:30;;;;;;;5.70;2.72;;;7.10;99.90;;;;;;7405409;19;20366;-63
2022/11/17 10:58:06;;;;;;;7.30;3.67;;;7.20;99.90;;;;;;7405202;19;19924;-63
2022/11/17 11:00:39;;;;;;;7.32;3.67;;;7.20;99.90;;;;;;7401960;19;20340;-64
2022/11/17 11:03:18;;;;;;;6.15;3.10;;;7.30;99.90;;;;;;7405311;19;19922;-63
2022/11/17 11:06:07;;;;;;;6.80;3.30;;;7.30;99.90;;;;;;7406369;19;20332;-64
2022/11/17 11:08:44;;;;;;;5.82;3.20;;;7.30;99.90;;;;;;7405687;19;19918;-64
2022/11/17 11:11:19;;;;;;;;;;;7.40;99.90;;;;;;7406716;19;20009;-64
2022/11/17 11:13:55;;;;;;;8.63;3.35;;;7.30;99.90;;;;;;7403239;19;19923;-63
2022/11/17 11:16:27;;;;;;;;;;;7.40;99.90;;;;;;7407719;19;19919;-64
2022/11/17 11:18:56;;;;;;;8.32;4.15;;;7.30;99.90;;;;;;7405824;19;19935;-63
2022/11/17 11:21:45;;;;;;;7.63;3.78;;;7.40;99.90;;;;;;7403469;19;19939;-63
2022/11/17 11:24:20;;;;;;;;;;;7.40;99.90;;;;;;7406500;19;20344;-63
2022/11/17 11:27:04;;;;;;;8.15;3.55;;;7.40;99.90;;;;;;7404693;19;19998;-64
2022/11/17 11:29:40;;;;;;;;;;;7.40;99.90;;;;;;7408739;19;19986;-71
2022/11/17 11:32:26;;;;;;;7.15;3.53;;;7.40;99.90;;;;;;7403696;19;19923;-63
2022/11/17 11:35:33;;;;;;;6.30;2.80;;;7.40;99.90;;;;;;7402717;19;19990;-74
2022/11/17 11:38:16;;;;;;;6.20;2.85;;;7.50;99.90;;;;;;7408901;19;19919;-76
2022/11/17 11:40:59;;;;;;;6.30;2.65;;;7.50;99.90;;;;;;7404828;19;19998;-78
2022/11/17 11:43:39;;;;;;;8.52;3.38;;;7.50;99.90;;;;;;7404282;19;19942;-63
2022/11/17 11:46:15;;;;;;;7.65;3.53;;;7.50;99.90;;;;;;7405866;19;19962;-63
2022/11/17 11:48:49;;;;;;;6.97;3.63;;;7.50;99.90;;;;;;7406653;19;19935;-75
2022/11/17 11:51:23;;;;;;;8.77;3.65;;;7.50;99.90;;;;;;7404786;19;19916;-78
2022/11/17 11:53:58;;;;;;;6.60;2.80;;;7.40;99.90;;;;;;7405298;19;19932;-75
2022/11/17 11:56:32;;;;;;;8.20;4.28;;;7.40;99.90;;;;;;7406272;19;19946;-76
2022/11/17 11:59:04;;;;;;;5.93;3.15;;;7.50;99.90;;;;;;7405579;19;19918;-77
2022/11/17 12:01:43;;;;;;;7.07;3.65;;;7.50;99.90;;;;;;7403856;19;19974;-63
2022/11/17 12:04:27;;;;;;;9.40;4.55;;;7.50;99.90;;;;;;7403900;19;19935;-63
2022/11/17 12:07:03;;;;;;;7.28;3.92;;;7.50;99.90;;;;;;7403215;19;19914;-63
2022/11/17 12:09:55;;;;;;;5.95;3.42;;;7.50;99.90;;;;;;7401199;19;20401;-63
2022/11/17 12:12:31;;;;;;;7.35;3.90;;;7.50;99.90;;;;;;7401478;19;19946;-63
2022/11/17 12:15:13;;;;;;;7.93;4.72;;;7.50;99.90;;;;;;7401872;19;19951;-63
2022/11/17 12:18:01;;;;;;;6.45;3.47;;;7.50;99.90;;;;;;7401111;19;19930;-63
2022/11/17 12:21:02;;;;;;;5.60;3.08;;;7.50;99.90;;;;;;7403098;19;19971;-63
2022/11/17 12:23:47;;;;;;;7.40;3.95;;;7.60;99.90;;;;;;7402596;19;19922;-63
2022/11/17 12:26:25;;;;;;;8.40;3.35;;;7.60;99.90;;;;;;7402734;19;20255;-63
2022/11/17 12:29:27;;;;;;;7.38;3.35;;;7.50;99.90;;;;;;7403260;19;19919;-63
2022/11/17 12:31:57;;;;;;;5.82;2.90;;;7.50;99.90;;;;;;7402329;19;19915;-63
2022/11/17 12:34:29;;;;;;;6.03;3.08;;;7.50;99.90;;;;;;7402879;19;19978;-63
2022/11/17 12:37:18;;;;;;;7.55;3.30;;;7.40;99.90;;;;;;7402773;19;19930;-63
2022/11/17 12:40:31;;;;;;;7.85;3.58;;;7.50;99.90;;;;;;7402606;19;19914;-63
2022/11/17 12:43:22;;;;;;;5.85;3.05;;;7.50;99.90;;;;;;7402630;19;19988;-63
2022/11/17 12:46:24;;;;;;;5.47;2.70;;;7.60;99.90;;;;;;7402195;19;19914;-63
2022/11/17 12:49:05;;;;;;;6.78;2.55;;;7.70;99.90;;;;;;7404697;19;19922;-63
2022/11/17 12:51:41;;;;;;;6.07;2.60;;;7.60;99.90;;;;;;7402205;19;19922;-63
2022/11/17 12:54:23;;;;;;;5.65;3.05;;;7.60;99.90;;;;;;7401531;19;19925;-63
2022/11/17 12:57:05;;;;;;;5.72;2.92;;;7.70;99.90;;;;;;7402190;19;19914;-63
2022/11/17 13:00:09;;;;;;;6.35;3.17;;;7.80;99.90;;;;;;7401749;19;19919;-63
2022/11/17 13:02:58;;;;;;;5.10;2.75;;;7.70;99.90;;;;;;7402771;19;19983;-64
2022/11/17 13:05:30;;;;;;;6.60;3.05;;;7.70;99.90;;;;;;7401450;19;19994;-63
2022/11/17 13:08:19;;;;;;;5.57;3.20;;;7.70;99.90;;;;;;7401122;19;19928;-63
2022/11/17 13:10:49;;;;;;;5.70;3.00;;;7.60;99.90;;;;;;7403697;19;19939;-64
2022/11/17 13:13:23;;;;;;;5.47;3.25;;;7.60;99.90;;;;;;7403600;19;19918;-63
2022/11/17 13:15:54;;;;;;;6.35;3.70;;;7.60;99.90;;;;;;7399212;19;19918;-64
2022/11/17 13:18:32;;;;;;;7.78;3.30;;;7.60;99.90;;;;;;7400007;19;19923;-64
2022/11/17 13:21:02;;;;;;;5.43;3.00;;;7.60;99.90;;;;;;7401483;19;19915;-64
2022/11/17 13:23:32;;;;;;;4.90;2.35;;;7.70;99.90;;;;;;7406377;19;19926;-63
2022/11/17 13:26:13;;;;;;;5.32;2.88;;;7.70;99.90;;;;;;7409829;19;19934;-64
2022/11/17 13:28:45;;;;;;;5.88;2.88;;;7.60;99.90;;;;;;7406261;19;19922;-64
2022/11/17 13:31:19;;;;;;;6.13;3.55;;;7.60;99.90;;;;;;7406707;19;20374;-65
2022/11/17 13:34:06;;;;;;;5.10;2.75;;;7.70;99.90;;;;;;7407793;19;19921;-64
2022/11/17 13:36:54;;;;;;;4.25;2.38;;;7.70;99.90;;;;;;7407118;19;19918;-64
2022/11/17 13:39:23;;;;;;;7.03;3.72;;;7.70;99.90;;;;;;7407902;19;19922;-64
2022/11/17 13:41:53;;;;;;;6.03;3.38;;;7.70;99.90;;;;;;7407548;19;20286;-63
2022/11/17 13:44:27;;;;;;;6.10;3.03;;;7.70;99.90;;;;;;7407632;19;19922;-64
2022/11/17 13:46:56;;;;;;;4.68;2.40;;;7.70;99.90;;;;;;7407280;19;20382;-62
2022/11/17 13:49:34;;;;;;;5.10;2.83;;;7.70;99.90;;;;;;7408275;19;19926;-63
2022/11/17 13:52:03;;;;;;;5.57;2.83;;;7.70;99.90;;;;;;7411809;19;19922;-64
2022/11/17 13:54:32;;;;;;;5.35;3.10;;;7.70;99.90;;;;;;7406461;19;20361;-62
2022/11/17 13:57:07;;;;;;;7.88;3.13;;;7.70;99.90;;;;;;7404667;19;19914;-63
2022/11/17 13:59:40;;;;;;;5.93;3.55;;;7.70;99.90;;;;;;7406576;19;19922;-63
2022/11/17 14:02:31;;;;;;;4.75;2.35;;;7.50;99.90;;;;;;7411333;19;20376;-63
2022/11/17 14:05:09;;;;;;;6.82;3.00;;;7.60;99.90;;;;;;7406301;19;19919;-62
2022/11/17 14:07:39;;;;;;;3.80;1.98;;;7.60;99.90;;;;;;7406815;19;19978;-63
2022/11/17 14:10:26;;;;;;;5.63;2.72;;;7.60;99.90;;;;;;7406709;19;20336;-63
2022/11/17 14:13:20;;;;;;;4.70;2.47;;;7.60;99.90;;;;;;7406590;19;20009;-63
2022/11/17 14:15:57;;;;;;;5.07;2.40;;;7.60;99.90;;;;;;7406322;19;20274;-63